Tropical Cyclones
[Index]
Main Index Home Page Stock Weather Photos Extreme Storms Discussion Storm News and Storm Chasing Reports Tropical Cyclones / Hurricanes / Typhoons Weather Data and Links Wild Fires / Bushfires Weather Observation Techniques Weather Picture Catalogue Tornado Pictures and Reports Stock Video Footage and DVDs for sale
Season 2007-2008 Tropical Cyclone HONDO Track Map
Season 2007-2008 Summaries: [BoM-AU] [JTWC-AU] [JTWC-SIO] [JTWC-SPAC] [JTWC-SH]
<<- Previous TC | JTWC 2007-2008 Season | Next TC ->>

click for intensity scale information  Lat/long Grid: Show Hide

 Date Labels: Show Hide

Joint Typhoon Warning Centre Cyclone Data

Name: HONDO

02 Feb 2008 06:00 UTC to 25 Feb 2008 12:00 UTC

    date/time    lat    long     hPa   cat  kts
2008-02-02 06   10.6    83.3    1010         15          
2008-02-02 12   10.9    83.2    1010         15          
2008-02-02 18   11.2    83.0    1010         15          
2008-02-03 00   11.5    82.6    1010         15          
2008-02-03 06   11.8    82.1    1007         20          
2008-02-03 12   12.1    81.4    1004         25          
2008-02-03 18   12.3    80.9    1003         25          
2008-02-04 00   12.4    80.4    1004         25          
2008-02-04 06   12.6    80.2    1000         30          
2008-02-04 12   12.9    80.1    1000         30          
2008-02-04 18   13.2    80.2     996         35          
2008-02-05 00   13.4    80.4     989    1    45          
2008-02-05 06   13.5    80.6     982    2    55          
2008-02-05 06   13.5    80.6     982    2    55          
2008-02-05 12   13.6    80.8     974    2    65          
2008-02-05 12   13.6    80.8     974    2    65          
2008-02-05 12   13.6    80.8     974    2    65          
2008-02-05 18   13.8    81.0     967    3    75          
2008-02-05 18   13.8    81.0     967    3    75          
2008-02-05 18   13.8    81.0     967    3    75          
2008-02-06 00   13.9    81.1     963    3    80          
2008-02-06 00   13.9    81.1     963    3    80          
2008-02-06 00   13.9    81.1     963    3    80          
2008-02-06 06   14.0    81.3     959    3    85          
2008-02-06 06   14.0    81.3     959    3    85          
2008-02-06 06   14.0    81.3     959    3    85          
2008-02-06 12   14.2    81.7     944    4   105          
2008-02-06 12   14.2    81.7     944    4   105          
2008-02-06 12   14.2    81.7     944    4   105          
2008-02-06 18   14.4    82.1     933    4   120          
2008-02-06 18   14.4    82.1     933    4   120          
2008-02-06 18   14.4    82.1     933    4   120          
2008-02-07 00   14.5    82.3     933    4   120          
2008-02-07 00   14.5    82.3     933    4   120          
2008-02-07 00   14.5    82.3     933    4   120          
2008-02-07 06   14.7    82.5     929    5   125          
2008-02-07 06   14.7    82.5     929    5   125          
2008-02-07 06   14.7    82.5     929    5   125          
2008-02-07 12   14.9    82.7     926    5   130          
2008-02-07 12   14.9    82.7     926    5   130          
2008-02-07 12   14.9    82.7     926    5   130          
2008-02-07 18   15.0    82.9     926    5   130          
2008-02-07 18   15.0    82.9     926    5   130          
2008-02-07 18   15.0    82.9     926    5   130          
2008-02-08 00   15.1    83.3     929    5   125          
2008-02-08 00   15.1    83.3     929    5   125          
2008-02-08 00   15.1    83.3     929    5   125          
2008-02-08 06   15.1    83.6     933    4   120          
2008-02-08 06   15.1    83.6     933    4   120          
2008-02-08 06   15.1    83.6     933    4   120          
2008-02-08 12   15.3    84.1     937    4   115          
2008-02-08 12   15.3    84.1     937    4   115          
2008-02-08 12   15.3    84.1     937    4   115          
2008-02-08 18   15.6    84.4     937    4   115          
2008-02-08 18   15.6    84.4     937    4   115          
2008-02-08 18   15.6    84.4     937    4   115          
2008-02-09 00   16.0    84.8     933    4   120          
2008-02-09 00   16.0    84.8     933    4   120          
2008-02-09 00   16.0    84.8     933    4   120          
2008-02-09 06   16.5    85.3     933    4   120          
2008-02-09 06   16.5    85.3     933    4   120          
2008-02-09 06   16.5    85.3     933    4   120          
2008-02-09 12   17.4    85.9     933    4   120          
2008-02-09 12   17.4    85.9     933    4   120          
2008-02-09 12   17.4    85.9     933    4   120          
2008-02-09 18   18.3    86.3     941    4   110          
2008-02-09 18   18.3    86.3     941    4   110          
2008-02-09 18   18.3    86.3     941    4   110          
2008-02-10 00   19.3    86.4     948    4   100          
2008-02-10 00   19.3    86.4     948    4   100          
2008-02-10 00   19.3    86.4     948    4   100          
2008-02-10 06   20.3    86.6     952    3    95          
2008-02-10 06   20.3    86.6     952    3    95          
2008-02-10 06   20.3    86.6     952    3    95          
2008-02-10 12   21.0    86.6     956    3    90          
2008-02-10 12   21.0    86.6     956    3    90          
2008-02-10 12   21.0    86.6     956    3    90          
2008-02-10 18   21.7    86.4     967    3    75          
2008-02-10 18   21.7    86.4     967    3    75          
2008-02-10 18   21.7    86.4     967    3    75          
2008-02-11 00   22.3    86.2     978    2    60          
2008-02-11 00   22.3    86.2     978    2    60          
2008-02-11 06   23.0    86.0     985    1    50          
2008-02-11 12   23.8    85.7     993    1    40          
2008-02-11 18   24.3    85.5     996         35          
2008-02-12 00   24.6    85.2     996         35          
2008-02-12 06   24.7    84.9     996         35          
2008-02-12 12   24.5    84.6     996         35          
2008-02-12 18   23.9    84.1    1000         30          
2008-02-13 00   23.1    83.6    1000         30          
2008-02-13 06   22.5    83.3    1000         30          
2008-02-13 12   22.0    83.0    1000         30          
2008-02-13 18   21.5    82.4    1000         30          
2008-02-14 00   21.4    82.1    1000         30          
2008-02-14 06   21.4    81.9    1000         30          
2008-02-14 12   21.8    81.3    1000         30          
2008-02-14 18   22.0    80.4     996         35          
2008-02-15 00   21.8    79.4     996         35          
2008-02-15 06   21.4    78.6    1000         30          
2008-02-15 12   20.9    78.0    1000         30          
2008-02-15 18   20.4    77.6    1000         30          
2008-02-16 00   19.9    77.3    1000         30          
2008-02-16 06   19.4    76.8    1000         30          
2008-02-16 12   19.1    75.6    1000         30          
2008-02-16 18   18.6    74.3    1004         25          
2008-02-17 00   18.2    73.1    1004         25          
2008-02-17 06   17.9    72.4    1004         25          
2008-02-17 12   17.8    71.7    1004         25          
2008-02-17 18   17.8    71.0    1004         25          
2008-02-18 00   17.8    70.3    1004         25          
2008-02-18 06   18.1    69.4    1004         25          
2008-02-18 12   18.3    68.6    1004         25          
2008-02-18 18   18.5    67.7    1004         25          
2008-02-19 00   18.7    66.8    1004         25          
2008-02-19 06   19.0    65.8    1004         25          
2008-02-19 12   19.4    64.6    1004         25          
2008-02-19 18   19.2    63.3    1004         25          
2008-02-20 00   18.7    62.3    1004         25          
2008-02-20 06   18.3    61.8    1004         25          
2008-02-20 12   17.9    61.2    1004         25          
2008-02-20 18   17.9    60.9    1004         25          
2008-02-21 00   18.0    60.6    1000         25          
2008-02-21 06   18.0    60.3    1000         30          
2008-02-21 12   18.1    60.1    1000         30          
2008-02-21 18   18.3    59.9    1000         30          
2008-02-22 00   18.5    59.8    1000         30          
2008-02-22 06   18.7    59.6    1000         30          
2008-02-22 12   18.9    59.3    1000         30          
2008-02-22 18   19.2    58.8     996         35          
2008-02-23 00   19.8    58.0     993    1    40          
2008-02-23 06   20.2    56.8     985    1    50          
2008-02-23 12   20.7    55.9     989    1    45          
2008-02-23 18   21.6    55.1     996         35          
2008-02-24 00   22.6    54.4    1000         30          
2008-02-24 06   23.7    53.5    1004         25          
2008-02-24 12   24.9    52.6    1004         25          
2008-02-24 18   26.3    51.9    1004         25          
2008-02-25 00   27.6    51.7    1004         25          
2008-02-25 06   28.9    51.8    1004         25          
2008-02-25 12   29.9    52.6    1004         25          
Winds are 1-min average.

Tropical cyclone tracks developed by Michael Bath using data from the Joint Typhoon Warning Centre Best Tracks and Google Maps.


[Australian Severe Weather index] [Copyright Notice] [Email Contacts] [Search This Site] [Privacy Policy]
Document: tropical_cyclone_hondo.htm Updated: 28 June 2017